createdAt,value
2018-11-03T20:21:08.366Z,97633.59
2018-11-03T20:24:45.356Z,97628.91
2018-11-03T20:29:54.685Z,97637.45
2018-11-03T20:32:25.317Z,97645.00
2018-11-03T20:34:56.274Z,97634.31
2018-11-03T20:37:27.121Z,97627.25
2018-11-03T20:39:57.684Z,97623.39
2018-11-03T20:42:50.444Z,97619.05
2018-11-03T20:45:30.194Z,97616.33
2018-11-03T20:48:11.413Z,97621.69
2018-11-03T20:50:45.726Z,97609.09
2018-11-03T20:53:17.679Z,97605.99
2018-11-03T20:56:00.137Z,97602.08
2018-11-03T20:58:32.719Z,97598.25
2018-11-03T21:01:05.783Z,97592.12
2018-11-03T21:03:36.463Z,97597.34
2018-11-03T21:06:07.418Z,97591.78
2018-11-03T21:08:38.108Z,97577.33
2018-11-03T21:11:09.088Z,97585.91
2018-11-03T21:13:39.750Z,97584.19
2018-11-03T21:16:10.697Z,97584.73
2018-11-03T21:18:42.436Z,97578.16
2018-11-03T21:21:12.907Z,97573.64
2018-11-03T21:23:44.780Z,97577.25
2018-11-03T21:26:15.472Z,97577.25
2018-11-03T21:28:46.364Z,97568.34
2018-11-03T21:31:17.119Z,97580.83
2018-11-03T21:33:47.790Z,97581.97
2018-11-03T21:36:18.610Z,97579.19
2018-11-03T21:38:49.516Z,97568.09
2018-11-03T21:41:20.343Z,97571.38
2018-11-03T21:43:51.172Z,97574.37
2018-11-03T21:46:22.297Z,97576.34
2018-11-03T21:48:53.364Z,97546.39
2018-11-03T21:51:24.468Z,97552.75
2018-11-03T21:53:55.185Z,97557.71
2018-11-03T21:56:26.013Z,97552.16
2018-11-03T21:58:57.116Z,97548.25
2018-11-03T22:01:27.837Z,97544.64
2018-11-03T22:03:58.681Z,97554.72
2018-11-03T22:06:29.647Z,97549.16
2018-11-03T22:09:00.443Z,97545.88
2018-11-03T22:11:31.136Z,97548.33
2018-11-03T22:14:02.152Z,97539.78
2018-11-03T22:16:33.272Z,97547.52
2018-11-03T22:19:05.343Z,97545.08
2018-11-03T22:21:36.352Z,97543.47
2018-11-03T22:24:08.622Z,97541.72
2018-11-03T22:26:39.673Z,97537.01
2018-11-03T22:29:10.317Z,97534.78
2018-11-03T22:31:42.497Z,97526.81
2018-11-03T22:34:22.676Z,97521.60
2018-11-03T22:36:55.319Z,97527.48
2018-11-03T22:39:26.270Z,97506.78
2018-11-03T22:41:56.860Z,97519.82
2018-11-03T22:44:27.828Z,97523.17
2018-11-03T22:46:58.663Z,97525.37
2018-11-03T22:49:29.167Z,97512.33
2018-11-03T22:52:00.425Z,97512.08
2018-11-03T22:54:31.379Z,97513.72
2018-11-03T22:57:02.569Z,97513.94
2018-11-03T22:59:33.894Z,97521.20
2018-11-03T23:02:06.226Z,97512.08
2018-11-03T23:04:36.697Z,97512.66
2018-11-03T23:07:07.822Z,97517.38
2018-11-03T23:09:38.895Z,97496.34
2018-11-03T23:12:09.676Z,97497.25
2018-11-03T23:14:40.643Z,97492.04
2018-11-03T23:17:11.325Z,97495.14
2018-11-03T23:19:42.354Z,97488.88
2018-11-03T23:22:12.962Z,97485.87
2018-11-03T23:24:43.702Z,97488.39
2018-11-03T23:27:14.516Z,97478.47
2018-11-03T23:29:45.591Z,97479.60
2018-11-03T23:32:16.175Z,97476.35
2018-11-03T23:34:47.041Z,97472.52
2018-11-03T23:37:17.892Z,97472.85
2018-11-03T23:39:49.011Z,97462.92
2018-11-03T23:42:19.619Z,97465.44
2018-11-03T23:44:50.409Z,97475.73
2018-11-03T23:47:21.840Z,97468.55
2018-11-03T23:49:52.977Z,97463.91
2018-11-03T23:55:05.001Z,97452.93
2018-11-03T23:57:35.926Z,97431.87
